• Join FlightAware (Why Join?)
  • Login
  • US Flag 
09:25PM EST


 

Airport Tracker/Info


-or-


 

Live Flight TrackerFlight Track Log ✈ SWA534 ✈ 01-Sep-2013 ✈ KOAK - KPDX

Flight Track Log - Related Links

Times and Time Zones

All times are in EDT time to prevent confusion due to time zone crossing. See the SWA534 flight status page for this flight to view local times or setup timezone preferences in your user account.

Time Position Orientation Groundspeed Altitude Reporting Facility
EDT Latitude Longitude Course Direction KTS MPH feet Rate Location/Type
06:40PM 37.7667 -122.3000 310° West 221 254 3,400  Level Northern Cal TRACON
06:42PM 37.9069 -122.2669 11° North 284 327 8,300 2,400 Climbing Oakland Center
06:43PM 37.9892 -122.2422 13° North 297 342 10,500 2,220 Climbing Oakland Center
06:44PM 38.0864 -122.2464 358° North 346 398 12,900 2,160 Climbing Oakland Center
06:45PM 38.1875 -122.2550 356° North 364 419 15,000 2,040 Climbing Oakland Center
06:46PM 38.2950 -122.2608 358° North 385 443 17,100 2,040 Climbing Oakland Center
06:47PM 38.4064 -122.2714 356° North 399 459 19,200 2,160 Climbing Oakland Center
06:48PM 38.5450 -122.2814 357° North 415 478 21,600 1,920 Climbing Oakland Center
06:49PM 38.6622 -122.2908 356° North 422 486 23,200 1,500 Climbing Oakland Center
06:50PM 38.7692 -122.2989 357° North 436 502 24,700 1,440 Climbing Oakland Center
06:51PM 38.8914 -122.3103 356° North 438 504 26,200 1,380 Climbing Oakland Center
06:52PM 39.0436 -122.3206 357° North 451 519 27,600 1,080 Climbing Oakland Center
06:53PM 39.1753 -122.3306 357° North 469 540 28,400 960 Climbing Oakland Center
06:54PM 39.3100 -122.3414 356° North 481 554 29,600 1,020 Climbing Oakland Center
06:55PM 39.4464 -122.3511 357° North 488 562 30,600 780 Climbing Oakland Center
06:56PM 39.5917 -122.3631 356° North 499 574 31,300 720 Climbing Oakland Center
06:57PM 39.7331 -122.3739 357° North 507 583 32,100 780 Climbing Oakland Center
06:58PM 39.8756 -122.3861 356° North 511 588 32,900 780 Climbing Oakland Center
06:59PM 40.0183 -122.3986 356° North 510 587 33,800 480 Climbing Oakland Center
07:00PM 40.1697 -122.4158 355° North 526 605 34,000 60 Climbing Oakland Center
07:01PM 40.3150 -122.4228 358° North 514 592 34,000  Level Oakland Center
07:02PM 40.4561 -122.4339 357° North 509 586 34,000  Level Oakland Center
07:03PM 40.5964 -122.4444 357° North 506 582 34,000  Level Oakland Center
07:04PM 40.7364 -122.4567 356° North 505 581 34,000  Level Oakland Center
07:05PM 40.8769 -122.4672 357° North 506 582 34,000  Level Oakland Center
07:06PM 41.0172 -122.4783 357° North 506 582 34,000  Level Oakland Center
07:07PM 41.1586 -122.4931 356° North 510 587 34,000  Level Oakland Center
07:08PM 41.2994 -122.5042 357° North 509 586 34,000  Level Oakland Center
07:09PM 41.4100 -122.5147 356° North 510 587 34,000  Level Seattle Center
07:10PM 41.5419 -122.5244 357° North 510 587 34,000  Level Seattle Center
07:11PM 41.6850 -122.5372 356° North 512 589 34,000  Level Seattle Center
07:12PM 41.8281 -122.5475 357° North 512 589 34,000  Level Seattle Center
07:13PM 41.9722 -122.5597 356° North 514 592 34,000  Level Seattle Center
07:14PM 42.1186 -122.5731 356° North 520 598 34,000  Level Seattle Center
07:15PM 42.2644 -122.5847 357° North 520 598 34,000  Level Seattle Center
07:16PM 42.4128 -122.5969 357° North 528 608 34,000  Level Seattle Center
07:17PM 42.5617 -122.6094 356° North 533 613 34,000  Level Seattle Center
07:18PM 42.7100 -122.6219 356° North 533 613 34,000  Level Seattle Center
07:19PM 42.8622 -122.6364 356° North 532 612 34,000  Level Seattle Center
07:20PM 43.0100 -122.6500 356° North 533 613 34,000  Level Seattle Center
07:21PM 43.1578 -122.6625 356° North 533 613 34,000  Level Seattle Center
07:22PM 43.3353 -122.6778 356° North 534 615 34,000  Level Seattle Center
07:23PM 43.4850 -122.6914 356° North 538 619 34,000  Level Seattle Center
07:24PM 43.6347 -122.7047 356° North 540 621 34,000  Level Seattle Center
07:25PM 43.7844 -122.7178 356° North 540 621 34,000 -1,380 Level Seattle Center
07:26PM 43.9331 -122.7311 356° North 539 620 31,200 -2,760 Descending Seattle Center
07:27PM 44.0769 -122.7456 356° North 530 610 28,500 -2,580 Descending Seattle Center
07:28PM 44.2125 -122.7467 360° North 503 579 26,100 -2,460 Descending Seattle Center
07:29PM 44.3472 -122.7336 North 481 554 23,600 -2,400 Descending Seattle Center
07:30PM 44.4753 -122.7217 North 465 535 21,300 -2,220 Descending Seattle Center
07:31PM 44.5967 -122.7094 North 443 510 19,100 -2,280 Descending Seattle Center
07:32PM 44.7150 -122.6983 North 433 498 16,800 -2,280 Descending Seattle Center
07:33PM 44.8283 -122.6861 North 413 475 14,600 -2,400 Descending Seattle Center
07:34PM 44.9106 -122.6789 North 405 466 13,000 -1,740 Descending Seattle Center
07:35PM 45.0189 -122.6686 North 387 445 11,900 -1,500 Descending Seattle Center
07:36PM 45.1203 -122.6553 North 365 420 10,000 -960 Descending Seattle Center
07:37PM 45.2247 -122.6467 North 360 414 10,000 -60 Level Seattle Center
07:38PM 45.3331 -122.6364 North 341 392 9,900 -660 Descending Seattle Center
07:39PM 45.4139 -122.6283 North 277 319 8,700 -1,500 Descending Seattle Center
07:40PM 45.4700 -122.5558 42° Northeast 286 329 6,400 -1,500 Descending Seattle Center
07:41PM 45.4522 -122.4864 110° East 219 252 5,600 -840 Descending Seattle Center
07:42PM 45.4306 -122.4119 113° Southeast 200 230 4,900 -1,140 Descending Seattle Center
07:43PM 45.4494 -122.3550 65° Northeast 202 232 3,500 -1,200 Descending Seattle Center
07:44PM 45.4894 -122.3817 335° Northwest 188 216 2,700 -600 Descending Seattle Center
07:45PM 45.5217 -122.4331 312° West 160 184 2,400 -540 Descending Seattle Center
07:46PM 45.5439 -122.4889 300° West 142 163 1,600 -720 Descending Seattle Center
07:47PM 45.5622 -122.5367 299° West 146 168 1,000 -780 Descending Seattle Center
07:48PM 45.5769 -122.5772 297° West 142 163 200 -900 Descending Seattle Center